Time;durP1;ratioP1;P1;durP2;ratioP2;P2;SDS_P1;SDS_P2;PMS_P1;PMS_P2;Temp;Humidity;BMP_temperature;BMP_pressure;BME280_temperature;BME280_humidity;BME280_pressure;Samples;Min_cycle;Max_cycle;Signal;HPM_P1;HPM_P2
2022/12/26 00:01:46;;;;;;;35.00;18.40;;;;;;;5.71;97.12;99159.28;1748426;81;21477;-40
2022/12/26 00:04:14;;;;;;;36.03;17.77;;;;;;;5.69;97.04;99163.70;1748138;81;21074;-38
2022/12/26 00:06:40;;;;;;;30.17;17.67;;;;;;;5.72;97.21;99162.30;1748300;81;21000;-37
2022/12/26 00:09:07;;;;;;;29.87;17.67;;;;;;;5.71;96.99;99160.16;1748090;81;20988;-39
2022/12/26 00:11:34;;;;;;;29.63;18.20;;;;;;;5.67;97.45;99150.72;1748200;81;21446;-39
2022/12/26 00:14:05;;;;;;;30.62;16.90;;;;;;;5.65;97.46;99149.09;1748170;81;21039;-39
2022/12/26 00:16:31;;;;;;;34.23;17.27;;;;;;;5.64;97.69;99138.23;1746896;81;20999;-39
2022/12/26 00:18:57;;;;;;;33.45;17.90;;;;;;;5.65;97.90;99143.87;1748180;81;20999;-38
2022/12/26 00:21:26;;;;;;;34.18;19.25;;;;;;;5.54;97.98;99144.27;1748086;81;20999;-39
2022/12/26 00:23:52;;;;;;;29.07;17.23;;;;;;;5.58;98.62;99134.98;1747943;81;20990;-40
2022/12/26 00:26:21;;;;;;;31.25;16.23;;;;;;;5.57;98.36;99133.73;1748211;81;20976;-39
2022/12/26 00:28:48;;;;;;;32.48;16.73;;;;;;;5.42;98.98;99131.67;1748174;81;20972;-38
2022/12/26 00:31:19;;;;;;;31.33;17.30;;;;;;;5.44;98.88;99120.72;1748363;81;21505;-41
2022/12/26 00:33:45;;;;;;;31.73;17.48;;;;;;;5.55;98.73;99113.38;1748184;81;21462;-39
2022/12/26 00:36:16;;;;;;;33.13;16.87;;;;;;;5.52;98.64;99101.28;1748371;81;20996;-38
2022/12/26 00:38:43;;;;;;;25.85;16.45;;;;;;;5.53;98.88;99101.69;1747980;81;21022;-38
2022/12/26 00:41:10;;;;;;;;;;;;;;;5.59;98.48;99098.00;1750673;81;21015;-38
2022/12/26 00:43:36;;;;;;;29.48;16.32;;;;;;;5.60;98.63;99095.77;1748494;81;20136;-39
2022/12/26 00:46:02;;;;;;;40.35;17.48;;;;;;;5.63;98.38;99083.92;1748075;81;20995;-39
2022/12/26 00:48:28;;;;;;;28.90;16.30;;;;;;;5.65;98.13;99072.13;1748230;80;21023;-40
2022/12/26 00:50:55;;;;;;;29.02;16.15;;;;;;;5.67;97.82;99062.47;1748090;81;21030;-38
2022/12/26 00:53:22;;;;;;;30.32;16.23;;;;;;;5.62;98.01;99063.98;1748018;82;21047;-39
2022/12/26 00:55:48;;;;;;;24.12;15.40;;;;;;;5.61;97.90;99050.98;1748171;81;21051;-38
2022/12/26 00:58:15;;;;;;;31.00;15.95;;;;;;;5.57;98.14;99039.82;1748060;81;20995;-39
2022/12/26 01:00:41;;;;;;;24.12;15.38;;;;;;;5.61;98.05;99047.92;1748024;82;21003;-38
2022/12/26 01:03:07;;;;;;;31.73;16.57;;;;;;;5.48;97.99;99048.00;1748016;82;21512;-38
2022/12/26 01:05:33;;;;;;;26.27;15.53;;;;;;;5.57;98.20;99048.95;1748279;82;21000;-38
2022/12/26 01:08:00;;;;;;;26.97;15.95;;;;;;;5.60;97.98;99046.67;1748012;81;21515;-39
2022/12/26 01:10:27;;;;;;;26.12;15.68;;;;;;;5.58;97.73;99041.07;1748057;81;21516;-40
2022/12/26 01:12:52;;;;;;;26.35;14.70;;;;;;;5.52;97.88;99026.95;1748248;82;20975;-38
2022/12/26 01:15:19;;;;;;;27.67;15.78;;;;;;;5.53;97.90;99031.27;1748075;81;20996;-38
2022/12/26 01:17:45;;;;;;;27.10;14.58;;;;;;;5.57;97.83;99024.17;1748073;81;21524;-39
2022/12/26 01:20:12;;;;;;;28.50;14.85;;;;;;;5.54;97.82;99019.06;1748044;82;21525;-39
2022/12/26 01:22:37;;;;;;;26.97;16.80;;;;;;;5.52;97.88;99027.41;1747946;81;20991;-40
2022/12/26 01:25:04;;;;;;;33.02;16.17;;;;;;;5.61;97.67;99030.12;1748156;81;21469;-40
2022/12/26 01:27:30;;;;;;;25.27;15.38;;;;;;;5.65;97.65;99026.47;1748195;81;21442;-38
2022/12/26 01:29:56;;;;;;;24.67;14.05;;;;;;;5.68;97.30;99021.98;1748025;82;21458;-39
2022/12/26 01:32:22;;;;;;;26.80;15.88;;;;;;;5.64;97.11;99038.67;1748046;81;21047;-41
2022/12/26 01:34:48;;;;;;;27.42;15.43;;;;;;;5.69;97.17;99040.63;1748029;81;21000;-39
2022/12/26 01:37:16;;;;;;;28.70;15.30;;;;;;;5.67;97.18;99033.31;1747966;81;21516;-39
2022/12/26 01:39:43;;;;;;;26.97;14.95;;;;;;;5.69;97.02;99008.01;1748174;81;20969;-38
2022/12/26 01:42:16;;;;;;;27.00;16.10;;;;;;;5.63;96.64;99013.48;1747997;81;20976;-38
2022/12/26 01:45:30;;;;;;;25.80;15.13;;;;;;;5.64;96.64;99028.23;1747449;81;20983;-39
2022/12/26 01:48:04;;;;;;;34.13;16.67;;;;;;;5.67;96.45;99046.36;1750959;81;21071;-38
2022/12/26 01:50:41;;;;;;;27.90;15.48;;;;;;;5.69;96.48;99038.02;1761393;81;21006;-37
2022/12/26 01:53:20;;;;;;;29.47;15.17;;;;;;;5.64;96.48;99033.45;1761612;81;21496;-37
2022/12/26 01:55:54;;;;;;;25.52;14.73;;;;;;;5.61;96.31;99021.83;1761342;81;20963;-37
2022/12/26 01:58:25;;;;;;;32.25;16.67;;;;;;;5.63;96.54;99020.00;1761408;81;21497;-39
2022/12/26 02:00:51;;;;;;;25.08;15.03;;;;;;;5.71;96.68;99013.17;1761217;81;20990;-37
2022/12/26 02:06:02;;;;;;;26.55;15.53;;;;;;;5.68;96.42;98991.14;1761369;81;20983;-38
2022/12/26 02:08:34;;;;;;;29.35;15.80;;;;;;;5.74;96.58;99007.84;1744253;81;21007;-37
2022/12/26 02:11:19;;;;;;;24.95;16.37;;;;;;;5.70;97.16;99000.59;1761364;81;20996;-39
2022/12/26 02:13:45;;;;;;;31.93;16.77;;;;;;;5.76;96.85;98991.66;1761356;81;21596;-39
2022/12/26 02:16:14;;;;;;;25.20;15.28;;;;;;;5.73;96.88;98992.66;1761394;81;21485;-39
2022/12/26 02:18:40;;;;;;;26.85;15.85;;;;;;;5.62;97.17;98984.41;1761359;80;20991;-38
2022/12/26 02:21:23;;;;;;;32.53;17.48;;;;;;;5.57;97.25;98982.44;1761402;80;20960;-40
2022/12/26 02:23:58;;;;;;;29.10;16.85;;;;;;;5.66;97.20;98971.63;1761323;81;21042;-37
2022/12/26 02:26:44;;;;;;;29.57;17.07;;;;;;;5.63;97.17;98958.70;1761045;81;20994;-39
2022/12/26 02:29:47;;;;;;;28.87;17.00;;;;;;;5.63;97.54;98949.57;1761567;81;21452;-37
2022/12/26 02:32:31;;;;;;;30.35;17.30;;;;;;;5.66;97.48;98938.18;1761416;81;21026;-38
2022/12/26 02:35:15;;;;;;;26.50;16.20;;;;;;;5.67;97.27;98947.22;1761205;81;21493;-38
2022/12/26 02:38:24;;;;;;;28.02;15.83;;;;;;;5.63;97.29;98954.78;1761142;81;21026;-39
2022/12/26 02:41:01;;;;;;;32.30;17.82;;;;;;;5.59;97.56;98941.48;1752290;78;21598;-38
2022/12/26 02:43:57;;;;;;;29.32;17.52;;;;;;;5.65;97.14;98938.61;1680090;85;21018;-39
2022/12/26 03:13:10;;;;;;;29.25;17.27;;;;;;;5.43;98.11;98857.80;1698911;84;21538;-39
2022/12/26 03:18:41;;;;;;;30.00;17.48;;;;;;;5.58;97.97;98855.00;1682303;85;21535;-39
2022/12/26 03:21:09;;;;;;;31.45;16.02;;;;;;;5.60;98.15;98841.44;1682326;85;20986;-41
2022/12/26 03:23:38;;;;;;;32.95;17.27;;;;;;;5.55;98.36;98842.11;1682209;85;21050;-38
2022/12/26 03:30:47;;;;;;;29.72;17.42;;;;;;;5.58;98.48;98833.70;1682360;85;21010;-38
2022/12/26 03:31:21;;;;;;;;;;;;;;;5.63;98.37;98835.26;1684629;85;21009;-36
2022/12/26 03:36:57;;;;;;;31.60;16.55;;;;;;;5.71;98.44;98834.46;1682195;85;21001;-40
2022/12/26 04:44:53;;;;;;;30.35;17.37;;;;;;;6.17;96.22;98768.53;1682464;85;21013;-40
2022/12/26 04:47:19;;;;;;;31.02;16.05;;;;;;;6.25;96.28;98770.79;1682372;85;21533;-37
2022/12/26 04:52:53;;;;;;;31.48;16.85;;;;;;;6.26;96.29;98772.03;1682582;85;21013;-35
2022/12/26 04:54:57;;;;;;;32.83;16.73;;;;;;;6.25;96.34;98785.15;1682206;85;21045;-37
2022/12/26 04:57:23;;;;;;;29.25;15.65;;;;;;;6.25;96.26;98791.20;1682274;85;20990;-36
2022/12/26 04:59:49;;;;;;;30.27;16.40;;;;;;;6.29;96.36;98778.86;1682283;85;21005;-38
2022/12/26 05:10:27;;;;;;;32.00;15.45;;;;;;;6.37;96.15;98746.72;1682282;85;21041;-39
2022/12/26 05:12:54;;;;;;;28.83;16.05;;;;;;;6.38;96.11;98753.63;1682392;85;21033;-37
2022/12/26 05:15:21;;;;;;;32.58;16.90;;;;;;;6.38;96.13;98752.31;1682484;85;21478;-39
2022/12/26 05:29:07;;;;;;;30.92;15.20;;;;;;;6.40;96.34;98745.72;1682255;85;21017;-36
2022/12/26 05:31:33;;;;;;;27.00;15.25;;;;;;;6.45;96.32;98729.38;1682240;85;21100;-37
2022/12/26 05:34:09;;;;;;;28.17;14.35;;;;;;;6.42;96.57;98711.23;1682247;85;21017;-37
2022/12/26 05:36:40;;;;;;;26.30;15.15;;;;;;;6.42;96.52;98714.72;1682293;85;21073;-36
2022/12/26 05:39:07;;;;;;;26.33;14.90;;;;;;;6.45;96.55;98711.94;1682191;85;21017;-36
2022/12/26 05:41:34;;;;;;;29.27;15.83;;;;;;;6.43;96.49;98694.19;1682334;85;21373;-40
2022/12/26 05:44:00;;;;;;;30.43;14.78;;;;;;;6.46;96.60;98694.05;1682390;85;21018;-37
2022/12/26 05:46:26;;;;;;;29.82;15.15;;;;;;;6.46;96.64;98721.48;1682241;85;20997;-38
2022/12/26 05:48:51;;;;;;;30.90;15.75;;;;;;;6.43;96.86;98716.39;1682192;85;21014;-37
2022/12/26 05:51:17;;;;;;;26.15;14.45;;;;;;;6.52;96.78;98728.17;1682249;85;21049;-38
2022/12/26 05:53:43;;;;;;;30.57;14.93;;;;;;;6.48;96.78;98717.02;1682247;85;21061;-37
2022/12/26 05:56:14;;;;;;;26.52;14.40;;;;;;;6.56;96.79;98715.81;1682223;85;21562;-37
2022/12/26 05:58:41;;;;;;;28.87;14.30;;;;;;;6.57;96.58;98712.26;1682266;85;21018;-38
2022/12/26 06:01:14;;;;;;;25.75;15.15;;;;;;;6.57;96.77;98710.52;1682437;85;20989;-37
2022/12/26 06:03:42;;;;;;;25.75;14.65;;;;;;;6.61;96.79;98712.05;1682393;85;21026;-38
2022/12/26 06:06:09;;;;;;;28.57;14.58;;;;;;;6.69;96.54;98707.75;1682450;85;21024;-38
2022/12/26 06:08:36;;;;;;;22.67;13.05;;;;;;;6.70;96.69;98712.08;1682327;85;20997;-39
2022/12/26 06:11:11;;;;;;;25.37;13.30;;;;;;;6.75;96.70;98711.39;1682235;85;21025;-37
2022/12/26 06:13:38;;;;;;;25.72;13.50;;;;;;;6.77;96.69;98706.94;1682233;85;21069;-39
2022/12/26 06:16:06;;;;;;;25.40;13.55;;;;;;;6.81;96.72;98701.94;1682367;85;21029;-36
2022/12/26 06:18:32;;;;;;;26.90;13.70;;;;;;;6.84;96.84;98706.15;1682380;85;21015;-37
2022/12/26 06:20:58;;;;;;;21.02;12.88;;;;;;;6.89;96.95;98693.70;1682156;85;21002;-36
2022/12/26 06:23:24;;;;;;;27.15;11.93;;;;;;;6.92;97.14;98703.55;1682212;85;21054;-36
2022/12/26 06:25:55;;;;;;;24.67;11.88;;;;;;;6.97;97.18;98702.03;1682267;85;21029;-38
2022/12/26 06:28:22;;;;;;;26.50;13.03;;;;;;;6.95;97.55;98705.62;1682260;85;21025;-39
2022/12/26 06:30:49;;;;;;;22.07;11.88;;;;;;;7.01;97.28;98711.87;1682383;85;21506;-38
2022/12/26 06:33:16;;;;;;;20.23;12.28;;;;;;;7.02;97.70;98700.47;1682443;85;21010;-36
2022/12/26 06:35:42;;;;;;;22.58;11.85;;;;;;;7.08;97.33;98700.19;1682413;85;21053;-38
2022/12/26 06:38:08;;;;;;;22.93;12.90;;;;;;;7.07;97.34;98708.94;1682236;85;21053;-38
2022/12/26 06:40:40;;;;;;;23.05;11.50;;;;;;;7.10;97.43;98700.95;1682240;85;21025;-36
2022/12/26 06:43:07;;;;;;;24.00;11.53;;;;;;;7.02;97.63;98682.17;1682136;84;21544;-40
2022/12/26 06:45:33;;;;;;;22.45;12.05;;;;;;;7.11;97.84;98689.55;1682503;85;21053;-36
2022/12/26 06:47:59;;;;;;;26.45;12.35;;;;;;;7.13;97.42;98682.94;1682203;85;20990;-36
2022/12/26 06:50:25;;;;;;;24.60;11.75;;;;;;;7.15;97.37;98687.18;1682173;85;21032;-38
2022/12/26 06:52:51;;;;;;;24.07;12.00;;;;;;;7.17;97.45;98696.23;1682221;85;21025;-38
2022/12/26 06:55:17;;;;;;;19.70;11.60;;;;;;;7.19;97.58;98693.94;1682205;85;20990;-36
2022/12/26 06:57:43;;;;;;;20.32;11.12;;;;;;;7.18;97.71;98689.63;1682240;85;21479;-37
2022/12/26 07:00:11;;;;;;;23.18;11.55;;;;;;;7.23;97.54;98690.23;1682266;85;21101;-36
2022/12/26 07:02:36;;;;;;;21.57;11.48;;;;;;;7.24;97.35;98681.48;1682167;85;21033;-39
2022/12/26 07:05:03;;;;;;;20.88;11.55;;;;;;;7.23;97.59;98685.00;1682208;85;20985;-39
2022/12/26 07:07:29;;;;;;;22.48;10.35;;;;;;;7.24;98.00;98693.25;1682309;85;21076;-37
2022/12/26 07:09:55;;;;;;;16.80;9.83;;;;;;;7.35;97.81;98694.45;1682259;85;21487;-38
2022/12/26 07:12:21;;;;;;;19.48;11.48;;;;;;;7.37;97.89;98701.75;1682561;85;21013;-40
2022/12/26 07:14:47;;;;;;;16.87;9.50;;;;;;;7.41;97.84;98703.30;1682233;85;21593;-37
2022/12/26 07:17:13;;;;;;;19.55;10.08;;;;;;;7.46;97.78;98700.83;1682172;85;21029;-39
2022/12/26 07:19:39;;;;;;;18.20;9.63;;;;;;;7.49;97.65;98701.98;1682385;85;21056;-37
2022/12/26 07:22:05;;;;;;;17.62;9.80;;;;;;;7.53;97.81;98703.98;1682431;85;21547;-37
2022/12/26 07:24:31;;;;;;;12.60;8.63;;;;;;;7.55;97.67;98694.28;1682405;85;21459;-38
2022/12/26 07:26:57;;;;;;;17.77;9.40;;;;;;;7.62;97.66;98694.34;1676837;85;21574;-36
2022/12/26 07:29:23;;;;;;;18.57;9.73;;;;;;;7.68;97.48;98692.69;1676699;85;21077;-39
2022/12/26 07:31:49;;;;;;;15.20;9.35;;;;;;;7.74;97.30;98691.99;1676751;85;21606;-38
2022/12/26 07:34:14;;;;;;;15.38;8.63;;;;;;;7.82;97.20;98689.35;1676725;85;21045;-38
2022/12/26 07:36:41;;;;;;;14.43;8.70;;;;;;;7.84;97.08;98695.78;1676814;85;21610;-39
2022/12/26 07:39:07;;;;;;;14.98;8.88;;;;;;;7.89;96.84;98693.77;1676714;85;21025;-41
2022/12/26 07:44:16;;;;;;;16.07;8.45;;;;;;;7.95;96.60;98709.61;1654521;85;21082;-37
2022/12/26 07:46:42;;;;;;;12.82;7.87;;;;;;;8.00;96.46;98717.59;1667897;86;21016;-38
2022/12/26 07:49:11;;;;;;;14.18;8.05;;;;;;;8.05;96.34;98718.20;1648634;87;21070;-39
2022/12/26 07:51:37;;;;;;;13.78;8.45;;;;;;;8.12;96.20;98717.89;1648658;87;21033;-39
2022/12/26 07:54:03;;;;;;;17.85;9.10;;;;;;;8.10;95.89;98697.02;1648781;87;20995;-38
2022/12/26 07:56:31;;;;;;;13.68;8.53;;;;;;;8.13;95.68;98702.09;1648716;87;22023;-38
2022/12/26 07:58:57;;;;;;;13.65;8.65;;;;;;;8.20;95.55;98707.34;1648592;87;21042;-37
2022/12/26 08:01:23;;;;;;;14.15;8.38;;;;;;;8.25;95.63;98708.41;1648729;87;21539;-39
2022/12/26 08:03:50;;;;;;;15.53;8.23;;;;;;;8.31;95.32;98704.13;1648587;87;21022;-39
2022/12/26 08:06:17;;;;;;;13.78;8.50;;;;;;;8.34;95.22;98690.04;1648868;87;21078;-41
2022/12/26 08:08:44;;;;;;;12.90;8.55;;;;;;;8.27;95.03;98680.36;1648769;87;21085;-39
2022/12/26 08:11:14;;;;;;;14.70;8.60;;;;;;;8.36;94.92;98700.80;1648871;87;21522;-37
2022/12/26 08:13:40;;;;;;;12.20;8.13;;;;;;;8.37;94.81;98709.53;1648608;87;21033;-37
2022/12/26 08:16:08;;;;;;;13.58;8.98;;;;;;;8.41;94.74;98729.38;1648848;87;21045;-39
2022/12/26 08:18:34;;;;;;;;;;;;;;;8.43;94.75;98717.91;1651138;87;20999;-39
2022/12/26 08:21:00;;;;;;;14.07;8.00;;;;;;;8.47;94.72;98726.91;1648689;87;20128;-37
2022/12/26 08:23:26;;;;;;;15.35;8.60;;;;;;;8.50;94.71;98717.58;1648609;87;21113;-37
2022/12/26 08:25:51;;;;;;;11.05;7.28;;;;;;;8.53;94.72;98705.59;1648624;87;21010;-42
2022/12/26 08:28:17;;;;;;;11.48;7.60;;;;;;;8.47;94.42;98721.67;1648591;87;21030;-40
2022/12/26 08:30:44;;;;;;;14.07;7.92;;;;;;;8.48;94.56;98707.63;1648610;87;21058;-39
2022/12/26 08:33:11;;;;;;;14.03;8.57;;;;;;;8.49;94.42;98706.70;1648855;87;21066;-46
2022/12/26 08:35:38;;;;;;;11.20;7.97;;;;;;;8.55;94.47;98705.91;1649033;87;21271;-38
2022/12/26 08:38:04;;;;;;;11.73;8.10;;;;;;;8.56;94.49;98697.09;1648751;87;21077;-48
2022/12/26 08:40:30;;;;;;;15.85;8.10;;;;;;;8.60;94.32;98697.77;1648630;87;21045;-38
2022/12/26 08:42:56;;;;;;;17.40;8.30;;;;;;;8.64;94.30;98700.58;1652766;85;21018;-37
2022/12/26 08:45:23;;;;;;;15.13;8.50;;;;;;;8.67;94.18;98703.05;1679365;85;21049;-41
2022/12/26 08:47:49;;;;;;;12.13;7.75;;;;;;;8.69;94.02;98719.52;1679201;85;21009;-39
2022/12/26 08:50:16;;;;;;;11.88;7.50;;;;;;;8.70;94.08;98713.84;1679427;85;21005;-39
2022/12/26 08:52:42;;;;;;;12.75;8.70;;;;;;;8.71;94.00;98708.48;1679258;85;21530;-37
2022/12/26 08:55:09;;;;;;;12.55;8.03;;;;;;;8.72;93.79;98717.21;1679114;85;21495;-39
2022/12/26 08:57:35;;;;;;;12.03;7.70;;;;;;;8.73;93.60;98709.70;1679328;85;21446;-36
2022/12/26 09:00:01;;;;;;;10.40;7.33;;;;;;;8.74;93.66;98708.31;1679133;84;21013;-38
2022/12/26 09:02:27;;;;;;;14.15;8.20;;;;;;;8.76;93.66;98698.58;1679328;85;21029;-40
2022/12/26 09:04:53;;;;;;;15.15;8.50;;;;;;;8.79;93.68;98706.28;1679055;85;20977;-39
2022/12/26 09:07:18;;;;;;;11.40;7.28;;;;;;;8.82;93.49;98702.63;1679071;85;21009;-38
2022/12/26 09:09:44;;;;;;;11.93;7.80;;;;;;;8.80;93.32;98703.19;1679127;85;20994;-40
2022/12/26 09:12:10;;;;;;;10.10;6.95;;;;;;;8.83;93.28;98714.34;1679121;85;21009;-38
2022/12/26 09:14:36;;;;;;;12.50;7.50;;;;;;;8.80;92.88;98722.41;1679174;85;21497;-39
2022/12/26 09:17:02;;;;;;;13.68;7.33;;;;;;;8.82;92.88;98708.73;1679159;85;21028;-37
2022/12/26 09:19:31;;;;;;;13.78;8.10;;;;;;;8.84;93.03;98716.05;1679455;85;21052;-37
2022/12/26 09:24:40;;;;;;;11.65;7.78;;;;;;;8.74;92.54;98707.48;1679150;84;20416;-38
2022/12/26 09:27:07;;;;;;;10.90;7.75;;;;;;;8.87;92.86;98709.77;1679185;84;21471;-39
2022/12/26 09:29:32;;;;;;;12.00;8.13;;;;;;;8.90;92.71;98708.77;1679240;84;21475;-37
2022/12/26 09:31:58;;;;;;;13.32;7.58;;;;;;;8.96;92.65;98707.08;1679125;84;21001;-37
2022/12/26 09:34:24;;;;;;;12.65;7.67;;;;;;;8.94;92.24;98707.17;1679086;85;20997;-37
2022/12/26 09:36:50;;;;;;;9.63;7.22;;;;;;;8.97;92.03;98703.55;1679057;85;21037;-37
2022/12/26 09:39:15;;;;;;;11.48;7.55;;;;;;;9.00;92.13;98717.77;1679175;85;21428;-38
2022/12/26 09:42:15;;;;;;;13.08;8.03;;;;;;;9.00;91.99;98701.59;1679174;85;21483;-39
2022/12/26 09:45:10;;;;;;;13.18;7.92;;;;;;;9.05;91.97;98700.47;1678860;84;21045;-40
2022/12/26 09:47:58;;;;;;;16.17;8.05;;;;;;;9.05;91.68;98696.53;1679207;85;21024;-39
2022/12/26 09:50:34;;;;;;;10.82;7.30;;;;;;;9.13;91.95;98703.02;1679180;85;21057;-36
2022/12/26 09:53:09;;;;;;;13.87;7.50;;;;;;;9.19;91.66;98711.83;1678818;85;21053;-36
2022/12/26 09:55:45;;;;;;;12.55;7.45;;;;;;;9.21;91.41;98698.16;1678957;85;20973;-39
2022/12/26 09:58:33;;;;;;;12.00;7.30;;;;;;;9.26;91.46;98695.72;1679259;85;21049;-40
2022/12/26 10:01:09;;;;;;;11.48;7.67;;;;;;;9.26;91.17;98693.09;1679250;85;21005;-38
2022/12/26 10:03:43;;;;;;;10.18;7.25;;;;;;;9.29;91.15;98696.38;1679033;85;21197;-38
2022/12/26 10:06:23;;;;;;;14.20;7.90;;;;;;;9.27;90.85;98700.04;1679852;84;21482;-38
2022/12/26 10:09:31;;;;;;;10.88;7.40;;;;;;;9.31;91.00;98702.38;1676687;85;21001;-43
2022/12/26 10:12:17;;;;;;;11.30;7.53;;;;;;;9.36;91.27;98702.11;1679104;84;21057;-42
2022/12/26 10:15:23;;;;;;;10.95;7.70;;;;;;;9.38;90.69;98702.86;1679172;84;20981;-37
2022/12/26 10:18:27;;;;;;;11.57;7.50;;;;;;;9.36;90.59;98700.33;1679582;85;21020;-36
2022/12/26 10:21:21;;;;;;;10.98;7.50;;;;;;;9.41;90.90;98704.00;1678843;85;21061;-38
2022/12/26 10:23:58;;;;;;;12.23;7.20;;;;;;;9.47;90.98;98701.47;1679045;85;21157;-37
2022/12/26 10:26:32;;;;;;;14.28;8.18;;;;;;;9.53;90.68;98703.72;1679253;85;21005;-39
2022/12/26 10:29:12;;;;;;;11.15;7.65;;;;;;;9.54;90.56;98697.55;1678997;85;21009;-40
2022/12/26 10:32:04;;;;;;;10.23;7.28;;;;;;;9.63;90.35;98704.02;1678679;85;21053;-41
2022/12/26 10:34:44;;;;;;;11.20;7.15;;;;;;;9.72;90.16;98696.89;1679093;84;21061;-42
2022/12/26 10:37:27;;;;;;;11.85;6.92;;;;;;;9.80;89.92;98681.50;1679050;85;21013;-40
2022/12/26 10:40:17;;;;;;;12.30;7.05;;;;;;;9.91;89.65;98685.61;1678432;85;21041;-37
2022/12/26 10:42:51;;;;;;;11.33;6.47;;;;;;;10.01;89.85;98685.06;1679004;85;21024;-40
2022/12/26 10:45:29;;;;;;;14.03;7.05;;;;;;;10.10;89.38;98684.48;1671614;84;21641;-40
2022/12/26 10:47:55;;;;;;;11.40;6.60;;;;;;;10.14;89.23;98684.17;1671503;86;21036;-41
2022/12/26 10:50:31;;;;;;;9.68;6.33;;;;;;;10.11;88.36;98682.21;1671571;86;20990;-38
2022/12/26 10:52:59;;;;;;;14.40;6.40;;;;;;;10.16;88.62;98680.14;1671509;86;21025;-39
2022/12/26 10:55:31;;;;;;;10.50;6.35;;;;;;;10.17;88.74;98672.64;1671483;86;21644;-40
2022/12/26 10:58:15;;;;;;;11.22;6.72;;;;;;;10.19;88.64;98673.39;1671547;86;20989;-39
2022/12/26 11:00:41;;;;;;;9.73;5.97;;;;;;;10.28;88.60;98664.08;1670747;85;21045;-40
2022/12/26 11:03:12;;;;;;;11.15;6.30;;;;;;;10.29;87.69;98658.70;1671430;86;20986;-39
2022/12/26 11:05:48;;;;;;;8.35;6.20;;;;;;;10.34;87.94;98662.39;1670736;85;21045;-38
2022/12/26 11:08:39;;;;;;;9.20;6.37;;;;;;;10.38;87.88;98662.08;1671754;86;21024;-36
2022/12/26 11:11:24;;;;;;;8.20;6.17;;;;;;;10.31;87.54;98669.98;1671663;86;21053;-36
2022/12/26 11:13:56;;;;;;;13.43;6.50;;;;;;;10.34;87.66;98666.34;1671479;86;21068;-37
2022/12/26 11:16:32;;;;;;;9.88;6.10;;;;;;;10.30;87.59;98675.33;1671460;86;21064;-38
2022/12/26 11:18:58;;;;;;;9.35;5.75;;;;;;;10.25;87.52;98663.78;1671437;84;21013;-36
2022/12/26 11:21:27;;;;;;;8.98;5.85;;;;;;;10.41;87.67;98665.48;1671565;86;21044;-40
2022/12/26 11:24:11;;;;;;;9.88;6.47;;;;;;;10.48;87.48;98668.92;1671467;86;20974;-36
2022/12/26 11:26:37;;;;;;;13.45;6.97;;;;;;;10.52;87.13;98666.94;1673864;85;20978;-39
2022/12/26 11:29:19;;;;;;;8.35;5.50;;;;;;;10.57;87.49;98660.91;1671489;86;20985;-40
2022/12/26 11:32:04;;;;;;;9.25;5.65;;;;;;;10.57;87.02;98670.11;1671482;86;21029;-40
2022/12/26 11:34:46;;;;;;;7.97;5.87;;;;;;;10.56;86.74;98655.27;1671567;86;21021;-41
2022/12/26 11:37:32;;;;;;;8.40;5.08;;;;;;;10.63;86.92;98648.66;1649548;86;21025;-37
2022/12/26 11:40:00;;;;;;;9.13;5.83;;;;;;;10.69;86.37;98647.41;1671589;86;21012;-38
2022/12/26 11:42:27;;;;;;;9.25;5.55;;;;;;;10.72;85.91;98648.05;1671479;84;21042;-36
2022/12/26 11:44:55;;;;;;;9.07;6.00;;;;;;;10.89;86.18;98647.41;1676339;84;21574;-39
2022/12/26 11:47:25;;;;;;;9.58;5.65;;;;;;;10.99;86.07;98644.53;1679012;85;21053;-37
2022/12/26 11:50:07;;;;;;;8.25;5.50;;;;;;;11.05;85.54;98636.70;1679015;85;20977;-39
2022/12/26 11:52:52;;;;;;;6.90;5.33;;;;;;;11.09;85.58;98649.53;1678996;85;21048;-39
2022/12/26 11:55:29;;;;;;;10.53;5.25;;;;;;;11.18;86.04;98640.66;1679028;85;21029;-39
2022/12/26 11:58:12;;;;;;;10.45;5.28;;;;;;;11.22;85.10;98631.59;1679156;85;21053;-36
2022/12/26 12:00:53;;;;;;;8.30;4.87;;;;;;;11.12;84.73;98632.22;1679001;85;21056;-39
2022/12/26 12:03:43;;;;;;;7.80;4.70;;;;;;;11.02;83.85;98615.37;1677269;85;21517;-40
2022/12/26 12:06:45;;;;;;;10.60;5.10;;;;;;;11.04;84.16;98634.55;1679052;85;21012;-41
2022/12/26 12:09:31;;;;;;;8.38;4.85;;;;;;;11.02;84.57;98653.52;1679870;84;21076;-39
2022/12/26 12:12:08;;;;;;;5.87;4.92;;;;;;;11.01;83.68;98654.48;1678931;85;21044;-41
2022/12/26 12:15:17;;;;;;;7.17;4.97;;;;;;;11.12;84.44;98662.48;1683057;84;20997;-36
2022/12/26 12:18:10;;;;;;;8.18;4.67;;;;;;;11.09;83.81;98653.95;1679138;84;20997;-38
2022/12/26 12:21:11;;;;;;;7.20;4.47;;;;;;;11.18;84.19;98657.76;1679287;84;21049;-40
2022/12/26 12:24:05;;;;;;;7.20;4.30;;;;;;;11.27;84.29;98654.50;1679085;85;21502;-39
2022/12/26 12:26:57;;;;;;;9.08;4.67;;;;;;;11.25;83.62;98656.39;1679118;84;21013;-40
2022/12/26 12:30:04;;;;;;;7.00;4.45;;;;;;;11.29;83.91;98646.02;1679163;85;21020;-39
2022/12/26 12:33:14;;;;;;;7.33;4.20;;;;;;;11.30;83.53;98648.55;1679224;84;21522;-39
2022/12/26 12:36:06;;;;;;;7.20;4.55;;;;;;;11.30;83.11;98652.50;1679161;85;21593;-37
2022/12/26 12:39:10;;;;;;;7.45;4.45;;;;;;;11.45;83.45;98637.91;1679149;85;21510;-40
2022/12/26 12:42:02;;;;;;;6.00;4.15;;;;;;;11.49;82.97;98656.01;1679216;84;21514;-39
2022/12/26 12:44:57;;;;;;;7.87;4.58;;;;;;;11.53;83.03;98648.74;1675432;84;21033;-38
2022/12/26 12:47:52;;;;;;;8.08;4.47;;;;;;;11.50;82.24;98662.97;1671660;86;21610;-37
2022/12/26 12:50:41;;;;;;;6.55;4.70;;;;;;;11.49;82.44;98648.11;1671029;86;21490;-40
2022/12/26 12:53:22;;;;;;;6.65;4.90;;;;;;;11.37;82.27;98648.98;1670687;86;21487;-39
2022/12/26 12:56:31;;;;;;;11.05;5.20;;;;;;;11.29;82.79;98646.85;1668188;86;21001;-40
2022/12/26 12:59:05;;;;;;;9.28;5.25;;;;;;;11.22;82.87;98642.13;1671516;86;21008;-38
2022/12/26 13:01:38;;;;;;;14.35;8.05;;;;;;;11.21;83.17;98649.19;1671573;86;21001;-38
2022/12/26 13:04:13;;;;;;;13.95;6.33;;;;;;;11.16;83.47;98642.55;1671477;86;21058;-36
2022/12/26 13:06:52;;;;;;;7.70;5.97;;;;;;;11.11;83.70;98634.50;1671611;86;21005;-37
2022/12/26 13:09:29;;;;;;;13.20;6.92;;;;;;;11.08;83.82;98626.81;1671036;86;21694;-36
2022/12/26 13:12:01;;;;;;;11.50;6.87;;;;;;;11.07;83.93;98618.53;1671760;86;21010;-38
2022/12/26 13:14:41;;;;;;;13.72;8.58;;;;;;;11.05;84.23;98623.06;1671553;86;21462;-37
2022/12/26 13:17:12;;;;;;;8.13;5.92;;;;;;;11.03;84.26;98617.06;1671758;84;21012;-37
2022/12/26 13:20:14;;;;;;;10.82;6.35;;;;;;;11.02;84.44;98637.73;1671603;86;21483;-38
2022/12/26 13:25:48;;;;;;;9.30;6.00;;;;;;;10.98;84.54;98634.95;1671591;86;21009;-39
2022/12/26 13:28:19;;;;;;;10.55;6.37;;;;;;;10.98;84.72;98639.38;1671562;84;21064;-37
2022/12/26 13:30:52;;;;;;;9.45;6.35;;;;;;;10.95;84.86;98633.38;1671500;86;21005;-37
2022/12/26 13:33:18;;;;;;;10.88;5.60;;;;;;;10.94;84.82;98642.68;1671594;86;21021;-36
2022/12/26 13:35:55;;;;;;;7.80;5.55;;;;;;;10.83;85.05;98630.25;1671702;86;21021;-40
2022/12/26 13:38:24;;;;;;;10.20;5.72;;;;;;;10.79;85.02;98626.14;1671523;86;21061;-37
2022/12/26 13:44:07;;;;;;;13.50;7.15;;;;;;;10.78;85.12;98620.50;1671710;86;21478;-36
2022/12/26 13:46:50;;;;;;;12.70;8.05;;;;;;;10.75;85.44;98616.30;1668134;86;21009;-40
2022/12/26 13:49:38;;;;;;;15.32;8.10;;;;;;;10.78;85.49;98613.92;1671602;86;21024;-39
2022/12/26 13:52:21;;;;;;;10.03;7.05;;;;;;;10.76;85.58;98619.28;1671551;86;21025;-37
2022/12/26 13:54:52;;;;;;;11.75;6.67;;;;;;;10.75;85.48;98622.88;1671611;84;21029;-37
2022/12/26 13:57:43;;;;;;;11.05;6.17;;;;;;;10.72;85.58;98626.19;1671521;86;21025;-36
2022/12/26 14:00:40;;;;;;;12.58;7.37;;;;;;;10.70;85.77;98622.33;1671557;86;21542;-37
2022/12/26 14:03:28;;;;;;;8.98;6.17;;;;;;;10.70;85.83;98636.80;1671765;86;21010;-36
2022/12/26 14:06:22;;;;;;;11.78;6.70;;;;;;;10.66;85.86;98631.83;1671501;86;21050;-37
2022/12/26 14:09:28;;;;;;;12.10;6.33;;;;;;;10.65;85.77;98643.31;1680958;85;21146;-38
2022/12/26 14:12:17;;;;;;;10.55;5.75;;;;;;;10.61;85.98;98645.30;1671508;86;21012;-39
2022/12/26 14:14:58;;;;;;;13.48;7.35;;;;;;;10.59;85.90;98636.67;1671579;86;21017;-38
2022/12/26 14:18:14;;;;;;;11.45;7.05;;;;;;;10.58;86.13;98646.80;1671542;86;21037;-38